Easton, Minnesota
Current Conditions -  °F | °C
As of 7:34 AM on Friday 24 Oct 2014 (Local Time) from KACQ Reporting Station
Clear Clear  
Wind Chill: 43°   Ceiling: Unl
Heat Index: 48°   Visibility: 10mi
Dew Point: 43°   Wind: 12mph
Humidity: 82%   Direction: 130°SE
Pressure: 29.89"   Gusts: NA
Location:  43.77°N, 93.9°W
Report Text: KACQ 241234Z AUTO 13010KT 10SM CLR 09/06 A2989 RMK AO2
Loading
Personal Weather Stations






























Interactive Weather Map
Tropical Storm Tracking
New forecast layout! Learn more

10-Day Weather Forecast

Advertisements
Track Severe Weather on mobile